KPUW/PUW METAR and TAF weather

Enter ICAO airport designator
Station Type Date Time Source
KPUW METAR 2022/06/25 22:53 UTC NOAA

KPUW 252253Z AUTO VRB03KT 10SM CLR 25/05 A3025 RMK AO2 SLP237 T02500050


Station Type Date Time Source
KPUW Decoded METAR 2022/06/25 22:53 UTC NOAA

PULLMAN/MOSCOW RGNL AIRPORT , WA, United States (KPUW) 46-45N 117-07W 773M
Jun 25, 2022 - 06:53 PM EDT / 2022.06.25 2253 UTC
Wind: Variable at 3 MPH (3 KT):0
Visibility: 10 mile(s):0
Sky conditions: clear
Temperature: 77.0 F (25.0 C)
Dew Point: 41.0 F (5.0 C)
Relative Humidity: 27%
Pressure (altimeter): 30.25 in. Hg (1024 hPa)
ob: KPUW 252253Z AUTO VRB03KT 10SM CLR 25/05 A3025 RMK AO2 SLP237 T02500050
cycle: 23

Station Type Date Time Source
KPUW TAF 2022/06/25 18:27 UTC NOAA

TAF KPUW 251724Z 2518/2618 12008KT P6SM SKC
FM252300 VRB04KT P6SM SKC
FM261200 08007KT P6SM SKC

Example: see airport list